sensor_id;sensor_type;location;lat;lon;timestamp;pressure;altitude;pressure_sealevel;temperature;humidity
77469;BME280;68840;50.272;12.818;2023-07-29T00:00:06;95585;;;18.9;89.7
77469;BME280;68840;50.272;12.818;2023-07-29T00:02:05;95583;;;18.9;90.2
77469;BME280;68840;50.272;12.818;2023-07-29T00:04:05;95582;;;18.9;90.2
77469;BME280;68840;50.272;12.818;2023-07-29T00:06:05;95581;;;18.9;90.3
77469;BME280;68840;50.272;12.818;2023-07-29T00:08:05;95578;;;18.9;90.3
77469;BME280;68840;50.272;12.818;2023-07-29T00:10:06;95577;;;18.9;90.2
77469;BME280;68840;50.272;12.818;2023-07-29T00:12:06;95576;;;18.9;90.2
77469;BME280;68840;50.272;12.818;2023-07-29T00:14:05;95574;;;18.9;90.3
77469;BME280;68840;50.272;12.818;2023-07-29T00:16:06;95575;;;18.9;90.4
77469;BME280;68840;50.272;12.818;2023-07-29T00:18:05;95573;;;18.8;90.4
77469;BME280;68840;50.272;12.818;2023-07-29T00:20:07;95571;;;18.8;90.7
77469;BME280;68840;50.272;12.818;2023-07-29T00:22:05;95571;;;18.8;90.8
77469;BME280;68840;50.272;12.818;2023-07-29T00:24:05;95568;;;18.8;90.9
77469;BME280;68840;50.272;12.818;2023-07-29T00:26:05;95569;;;18.8;91.0
77469;BME280;68840;50.272;12.818;2023-07-29T00:28:05;95569;;;18.8;91.0
77469;BME280;68840;50.272;12.818;2023-07-29T00:30:06;95569;;;18.8;91.2
77469;BME280;68840;50.272;12.818;2023-07-29T00:32:05;95569;;;18.8;91.2
77469;BME280;68840;50.272;12.818;2023-07-29T00:34:05;95572;;;18.8;91.3
77469;BME280;68840;50.272;12.818;2023-07-29T00:36:05;95571;;;18.8;91.5
77469;BME280;68840;50.272;12.818;2023-07-29T00:38:05;95570;;;18.8;91.6
77469;BME280;68840;50.272;12.818;2023-07-29T00:40:12;95565;;;18.8;91.3
77469;BME280;68840;50.272;12.818;2023-07-29T00:42:05;95559;;;18.7;91.3
77469;BME280;68840;50.272;12.818;2023-07-29T00:44:05;95555;;;18.7;91.5
77469;BME280;68840;50.272;12.818;2023-07-29T00:46:05;95551;;;18.7;91.6
77469;BME280;68840;50.272;12.818;2023-07-29T00:48:05;95550;;;18.7;91.6
77469;BME280;68840;50.272;12.818;2023-07-29T00:50:06;95551;;;18.7;91.5
77469;BME280;68840;50.272;12.818;2023-07-29T00:52:05;95552;;;18.7;91.4
77469;BME280;68840;50.272;12.818;2023-07-29T00:54:05;95549;;;18.7;91.7
77469;BME280;68840;50.272;12.818;2023-07-29T00:56:05;95546;;;18.6;91.6
77469;BME280;68840;50.272;12.818;2023-07-29T00:58:05;95542;;;18.6;91.5
77469;BME280;68840;50.272;12.818;2023-07-29T01:00:06;95541;;;18.6;91.9
77469;BME280;68840;50.272;12.818;2023-07-29T01:02:05;95540;;;18.6;91.5
77469;BME280;68840;50.272;12.818;2023-07-29T01:04:05;95540;;;18.5;91.8
77469;BME280;68840;50.272;12.818;2023-07-29T01:06:13;95541;;;18.5;92.0
77469;BME280;68840;50.272;12.818;2023-07-29T01:08:11;95543;;;18.5;91.7
77469;BME280;68840;50.272;12.818;2023-07-29T01:10:13;95543;;;18.5;91.7
77469;BME280;68840;50.272;12.818;2023-07-29T01:12:11;95540;;;18.5;91.6
77469;BME280;68840;50.272;12.818;2023-07-29T01:14:15;95540;;;18.5;91.6
77469;BME280;68840;50.272;12.818;2023-07-29T01:16:10;95542;;;18.5;91.5
77469;BME280;68840;50.272;12.818;2023-07-29T01:18:08;95544;;;18.5;91.7
77469;BME280;68840;50.272;12.818;2023-07-29T01:20:08;95544;;;18.5;91.5
77469;BME280;68840;50.272;12.818;2023-07-29T01:22:08;95544;;;18.5;91.7
77469;BME280;68840;50.272;12.818;2023-07-29T01:24:05;95543;;;18.5;91.2
77469;BME280;68840;50.272;12.818;2023-07-29T01:26:05;95544;;;18.4;91.6
77469;BME280;68840;50.272;12.818;2023-07-29T01:28:05;95545;;;18.4;91.5
77469;BME280;68840;50.272;12.818;2023-07-29T01:30:06;95546;;;18.4;91.6
77469;BME280;68840;50.272;12.818;2023-07-29T01:32:11;95546;;;18.4;91.3
77469;BME280;68840;50.272;12.818;2023-07-29T01:34:11;95545;;;18.4;91.4
77469;BME280;68840;50.272;12.818;2023-07-29T01:36:11;95545;;;18.4;91.5
77469;BME280;68840;50.272;12.818;2023-07-29T01:38:09;95544;;;18.4;91.5
77469;BME280;68840;50.272;12.818;2023-07-29T01:40:08;95546;;;18.4;91.5
77469;BME280;68840;50.272;12.818;2023-07-29T01:42:05;95546;;;18.4;91.3
77469;BME280;68840;50.272;12.818;2023-07-29T01:44:06;95546;;;18.4;90.9
77469;BME280;68840;50.272;12.818;2023-07-29T01:46:05;95547;;;18.5;91.3
77469;BME280;68840;50.272;12.818;2023-07-29T01:48:05;95549;;;18.5;91.3
77469;BME280;68840;50.272;12.818;2023-07-29T01:50:06;95549;;;18.5;91.2
77469;BME280;68840;50.272;12.818;2023-07-29T01:52:05;95550;;;18.5;91.5
77469;BME280;68840;50.272;12.818;2023-07-29T01:54:05;95546;;;18.5;91.4
77469;BME280;68840;50.272;12.818;2023-07-29T01:56:05;95544;;;18.5;91.5
77469;BME280;68840;50.272;12.818;2023-07-29T01:58:05;95542;;;18.5;91.4
77469;BME280;68840;50.272;12.818;2023-07-29T02:00:06;95540;;;18.4;91.3
77469;BME280;68840;50.272;12.818;2023-07-29T02:02:05;95543;;;18.4;91.3
77469;BME280;68840;50.272;12.818;2023-07-29T02:04:05;95544;;;18.4;91.5
77469;BME280;68840;50.272;12.818;2023-07-29T02:06:05;95545;;;18.4;91.8
77469;BME280;68840;50.272;12.818;2023-07-29T02:08:05;95547;;;18.4;91.7
77469;BME280;68840;50.272;12.818;2023-07-29T02:10:06;95544;;;18.4;91.8
77469;BME280;68840;50.272;12.818;2023-07-29T02:12:07;95543;;;18.4;91.7
77469;BME280;68840;50.272;12.818;2023-07-29T02:14:05;95544;;;18.3;91.7
77469;BME280;68840;50.272;12.818;2023-07-29T02:16:05;95544;;;18.3;91.5
77469;BME280;68840;50.272;12.818;2023-07-29T02:18:06;95542;;;18.3;91.8
77469;BME280;68840;50.272;12.818;2023-07-29T02:20:06;95541;;;18.3;91.8
77469;BME280;68840;50.272;12.818;2023-07-29T02:22:05;95540;;;18.3;91.8
77469;BME280;68840;50.272;12.818;2023-07-29T02:24:05;95535;;;18.3;91.7
77469;BME280;68840;50.272;12.818;2023-07-29T02:26:06;95535;;;18.2;91.8
77469;BME280;68840;50.272;12.818;2023-07-29T02:28:05;95534;;;18.2;91.6
77469;BME280;68840;50.272;12.818;2023-07-29T02:30:06;95536;;;18.2;91.8
77469;BME280;68840;50.272;12.818;2023-07-29T02:32:05;95537;;;18.2;91.7
77469;BME280;68840;50.272;12.818;2023-07-29T02:34:05;95535;;;18.2;91.8
77469;BME280;68840;50.272;12.818;2023-07-29T02:36:05;95535;;;18.2;91.9
77469;BME280;68840;50.272;12.818;2023-07-29T02:38:05;95536;;;18.1;91.9
77469;BME280;68840;50.272;12.818;2023-07-29T02:40:06;95538;;;18.1;92.0
77469;BME280;68840;50.272;12.818;2023-07-29T02:42:05;95540;;;18.1;91.9
77469;BME280;68840;50.272;12.818;2023-07-29T02:44:05;95540;;;18.1;91.8
77469;BME280;68840;50.272;12.818;2023-07-29T02:46:05;95540;;;18.1;92.1
77469;BME280;68840;50.272;12.818;2023-07-29T02:48:05;95543;;;18.1;92.1
77469;BME280;68840;50.272;12.818;2023-07-29T02:50:05;95544;;;18.1;92.1
77469;BME280;68840;50.272;12.818;2023-07-29T02:52:05;95541;;;18.1;92.0
77469;BME280;68840;50.272;12.818;2023-07-29T02:54:05;95544;;;18.1;92.0
77469;BME280;68840;50.272;12.818;2023-07-29T02:56:09;95544;;;18.1;92.1
77469;BME280;68840;50.272;12.818;2023-07-29T02:58:05;95546;;;18.1;92.0
77469;BME280;68840;50.272;12.818;2023-07-29T03:00:07;95544;;;18.0;92.0
77469;BME280;68840;50.272;12.818;2023-07-29T03:02:05;95541;;;18.0;92.2
77469;BME280;68840;50.272;12.818;2023-07-29T03:04:06;95542;;;18.0;92.1
77469;BME280;68840;50.272;12.818;2023-07-29T03:06:07;95540;;;18.0;92.0
77469;BME280;68840;50.272;12.818;2023-07-29T03:08:05;95541;;;18.0;92.1
77469;BME280;68840;50.272;12.818;2023-07-29T03:10:06;95539;;;18.0;92.0
77469;BME280;68840;50.272;12.818;2023-07-29T03:12:06;95536;;;18.0;92.2
77469;BME280;68840;50.272;12.818;2023-07-29T03:14:06;95531;;;18.0;91.9
77469;BME280;68840;50.272;12.818;2023-07-29T03:16:06;95530;;;18.0;92.0
77469;BME280;68840;50.272;12.818;2023-07-29T03:18:05;95530;;;18.0;92.0
77469;BME280;68840;50.272;12.818;2023-07-29T03:20:06;95531;;;18.0;92.0
77469;BME280;68840;50.272;12.818;2023-07-29T03:22:05;95527;;;18.0;92.0
77469;BME280;68840;50.272;12.818;2023-07-29T03:24:06;95529;;;18.0;92.0
77469;BME280;68840;50.272;12.818;2023-07-29T03:26:10;95530;;;18.0;92.0
77469;BME280;68840;50.272;12.818;2023-07-29T03:28:05;95530;;;18.0;92.1
77469;BME280;68840;50.272;12.818;2023-07-29T03:30:06;95531;;;18.0;92.1
77469;BME280;68840;50.272;12.818;2023-07-29T03:32:05;95532;;;18.0;92.1
77469;BME280;68840;50.272;12.818;2023-07-29T03:34:05;95530;;;18.0;92.1
77469;BME280;68840;50.272;12.818;2023-07-29T03:36:05;95530;;;18.0;92.1
77469;BME280;68840;50.272;12.818;2023-07-29T03:38:05;95529;;;18.0;92.1
77469;BME280;68840;50.272;12.818;2023-07-29T03:40:06;95532;;;18.0;92.2
77469;BME280;68840;50.272;12.818;2023-07-29T03:42:05;95537;;;18.0;92.3
77469;BME280;68840;50.272;12.818;2023-07-29T03:44:05;95540;;;18.0;92.1
77469;BME280;68840;50.272;12.818;2023-07-29T03:46:05;95541;;;18.0;92.1
77469;BME280;68840;50.272;12.818;2023-07-29T03:48:05;95543;;;18.0;92.2
77469;BME280;68840;50.272;12.818;2023-07-29T03:50:05;95544;;;18.0;92.2
77469;BME280;68840;50.272;12.818;2023-07-29T03:52:06;95543;;;18.0;92.3
77469;BME280;68840;50.272;12.818;2023-07-29T03:54:06;95543;;;18.0;92.4
77469;BME280;68840;50.272;12.818;2023-07-29T03:56:05;95542;;;18.0;92.3
77469;BME280;68840;50.272;12.818;2023-07-29T03:58:05;95541;;;18.0;92.3
77469;BME280;68840;50.272;12.818;2023-07-29T04:00:06;95542;;;18.0;92.3
77469;BME280;68840;50.272;12.818;2023-07-29T04:02:05;95544;;;18.0;92.3
77469;BME280;68840;50.272;12.818;2023-07-29T04:04:05;95548;;;18.0;92.2
77469;BME280;68840;50.272;12.818;2023-07-29T04:06:05;95551;;;18.1;92.3
77469;BME280;68840;50.272;12.818;2023-07-29T04:08:05;95553;;;18.1;92.3
77469;BME280;68840;50.272;12.818;2023-07-29T04:10:06;95555;;;18.1;92.4
77469;BME280;68840;50.272;12.818;2023-07-29T04:12:05;95555;;;18.1;92.2
77469;BME280;68840;50.272;12.818;2023-07-29T04:14:05;95558;;;18.1;92.3
77469;BME280;68840;50.272;12.818;2023-07-29T04:16:06;95559;;;18.1;92.3
77469;BME280;68840;50.272;12.818;2023-07-29T04:18:05;95560;;;18.1;92.3
77469;BME280;68840;50.272;12.818;2023-07-29T04:20:06;95560;;;18.1;92.4
77469;BME280;68840;50.272;12.818;2023-07-29T04:22:05;95556;;;18.1;92.2
77469;BME280;68840;50.272;12.818;2023-07-29T04:24:05;95554;;;18.1;92.2
77469;BME280;68840;50.272;12.818;2023-07-29T04:26:05;95550;;;18.1;92.4
77469;BME280;68840;50.272;12.818;2023-07-29T04:28:05;95548;;;18.1;92.5
77469;BME280;68840;50.272;12.818;2023-07-29T04:30:06;95547;;;18.1;92.5
77469;BME280;68840;50.272;12.818;2023-07-29T04:32:06;95546;;;18.1;92.4
77469;BME280;68840;50.272;12.818;2023-07-29T04:34:05;95543;;;18.1;92.7
77469;BME280;68840;50.272;12.818;2023-07-29T04:36:05;95537;;;18.1;92.7
77469;BME280;68840;50.272;12.818;2023-07-29T04:38:05;95534;;;18.1;92.6
77469;BME280;68840;50.272;12.818;2023-07-29T04:40:06;95531;;;18.1;92.7
77469;BME280;68840;50.272;12.818;2023-07-29T04:42:05;95527;;;18.1;92.8
77469;BME280;68840;50.272;12.818;2023-07-29T04:44:05;95525;;;18.2;92.8
77469;BME280;68840;50.272;12.818;2023-07-29T04:46:06;95525;;;18.2;92.7
77469;BME280;68840;50.272;12.818;2023-07-29T04:48:05;95528;;;18.2;92.8
77469;BME280;68840;50.272;12.818;2023-07-29T04:50:06;95531;;;18.2;93.1
77469;BME280;68840;50.272;12.818;2023-07-29T04:52:05;95531;;;18.2;93.3
77469;BME280;68840;50.272;12.818;2023-07-29T04:54:05;95530;;;18.2;93.1
77469;BME280;68840;50.272;12.818;2023-07-29T04:56:05;95529;;;18.3;93.0
77469;BME280;68840;50.272;12.818;2023-07-29T04:58:05;95528;;;18.3;93.1
77469;BME280;68840;50.272;12.818;2023-07-29T05:00:06;95530;;;18.3;92.6
77469;BME280;68840;50.272;12.818;2023-07-29T05:02:05;95529;;;18.4;92.6
77469;BME280;68840;50.272;12.818;2023-07-29T05:04:05;95526;;;18.4;92.6
77469;BME280;68840;50.272;12.818;2023-07-29T05:06:05;95524;;;18.4;92.8
77469;BME280;68840;50.272;12.818;2023-07-29T05:08:05;95525;;;18.4;92.6
77469;BME280;68840;50.272;12.818;2023-07-29T05:10:06;95525;;;18.4;92.4
77469;BME280;68840;50.272;12.818;2023-07-29T05:12:06;95524;;;18.4;92.7
77469;BME280;68840;50.272;12.818;2023-07-29T05:14:06;95525;;;18.5;92.6
77469;BME280;68840;50.272;12.818;2023-07-29T05:16:05;95527;;;18.5;92.5
77469;BME280;68840;50.272;12.818;2023-07-29T05:18:05;95532;;;18.5;92.3
77469;BME280;68840;50.272;12.818;2023-07-29T05:20:06;95532;;;18.5;92.6
77469;BME280;68840;50.272;12.818;2023-07-29T05:22:05;95532;;;18.5;92.6
77469;BME280;68840;50.272;12.818;2023-07-29T05:24:05;95531;;;18.5;92.3
77469;BME280;68840;50.272;12.818;2023-07-29T05:26:05;95531;;;18.5;92.7
77469;BME280;68840;50.272;12.818;2023-07-29T05:28:05;95533;;;18.5;92.3
77469;BME280;68840;50.272;12.818;2023-07-29T05:30:07;95534;;;18.6;92.3
77469;BME280;68840;50.272;12.818;2023-07-29T05:32:05;95534;;;18.6;92.3
77469;BME280;68840;50.272;12.818;2023-07-29T05:34:05;95528;;;18.6;92.0
77469;BME280;68840;50.272;12.818;2023-07-29T05:36:05;95528;;;18.6;92.2
77469;BME280;68840;50.272;12.818;2023-07-29T05:38:08;95530;;;18.6;92.1
77469;BME280;68840;50.272;12.818;2023-07-29T05:40:07;95538;;;18.6;92.5
77469;BME280;68840;50.272;12.818;2023-07-29T05:42:06;95539;;;18.6;92.4
77469;BME280;68840;50.272;12.818;2023-07-29T05:44:05;95539;;;18.7;93.0
77469;BME280;68840;50.272;12.818;2023-07-29T05:46:05;95538;;;18.8;91.7
77469;BME280;68840;50.272;12.818;2023-07-29T05:48:05;95541;;;18.8;91.8
77469;BME280;68840;50.272;12.818;2023-07-29T05:50:06;95540;;;18.8;91.6
77469;BME280;68840;50.272;12.818;2023-07-29T05:52:06;95542;;;18.9;91.3
77469;BME280;68840;50.272;12.818;2023-07-29T05:54:05;95541;;;18.9;91.2
77469;BME280;68840;50.272;12.818;2023-07-29T05:56:05;95541;;;18.9;92.1
77469;BME280;68840;50.272;12.818;2023-07-29T05:58:05;95540;;;18.9;92.6
77469;BME280;68840;50.272;12.818;2023-07-29T06:00:06;95542;;;19.0;91.0
77469;BME280;68840;50.272;12.818;2023-07-29T06:02:06;95543;;;19.0;90.9
77469;BME280;68840;50.272;12.818;2023-07-29T06:04:05;95546;;;19.0;90.4
77469;BME280;68840;50.272;12.818;2023-07-29T06:06:05;95544;;;19.0;90.9
77469;BME280;68840;50.272;12.818;2023-07-29T06:08:05;95548;;;19.1;90.1
77469;BME280;68840;50.272;12.818;2023-07-29T06:10:05;95548;;;19.1;90.6
77469;BME280;68840;50.272;12.818;2023-07-29T06:12:06;95548;;;19.1;91.1
77469;BME280;68840;50.272;12.818;2023-07-29T06:14:05;95547;;;19.1;90.4
77469;BME280;68840;50.272;12.818;2023-07-29T06:16:05;95547;;;19.1;90.8
77469;BME280;68840;50.272;12.818;2023-07-29T06:18:05;95544;;;19.1;89.8
77469;BME280;68840;50.272;12.818;2023-07-29T06:20:06;95543;;;19.1;89.6
77469;BME280;68840;50.272;12.818;2023-07-29T06:22:05;95543;;;19.1;91.1
77469;BME280;68840;50.272;12.818;2023-07-29T06:24:05;95544;;;19.1;89.7
77469;BME280;68840;50.272;12.818;2023-07-29T06:26:06;95547;;;19.1;89.6
77469;BME280;68840;50.272;12.818;2023-07-29T06:28:05;95552;;;19.1;89.5
77469;BME280;68840;50.272;12.818;2023-07-29T06:30:06;95551;;;19.2;90.4
77469;BME280;68840;50.272;12.818;2023-07-29T06:32:06;95547;;;19.2;89.6
77469;BME280;68840;50.272;12.818;2023-07-29T06:34:05;95547;;;19.2;89.2
77469;BME280;68840;50.272;12.818;2023-07-29T06:36:05;95548;;;19.2;88.8
77469;BME280;68840;50.272;12.818;2023-07-29T06:38:05;95545;;;19.3;88.6
77469;BME280;68840;50.272;12.818;2023-07-29T06:40:06;95543;;;19.3;88.4
77469;BME280;68840;50.272;12.818;2023-07-29T06:42:05;95540;;;19.3;87.3
77469;BME280;68840;50.272;12.818;2023-07-29T06:44:05;95537;;;19.3;87.2
77469;BME280;68840;50.272;12.818;2023-07-29T06:46:05;95537;;;19.4;85.9
77469;BME280;68840;50.272;12.818;2023-07-29T06:48:05;95538;;;19.3;86.9
77469;BME280;68840;50.272;12.818;2023-07-29T06:50:06;95541;;;19.4;86.0
77469;BME280;68840;50.272;12.818;2023-07-29T06:52:05;95540;;;19.4;84.0
77469;BME280;68840;50.272;12.818;2023-07-29T06:54:05;95542;;;19.4;84.8
77469;BME280;68840;50.272;12.818;2023-07-29T06:56:05;95540;;;19.4;84.2
77469;BME280;68840;50.272;12.818;2023-07-29T06:58:05;95539;;;19.5;82.3
77469;BME280;68840;50.272;12.818;2023-07-29T07:00:06;95534;;;19.5;82.7
77469;BME280;68840;50.272;12.818;2023-07-29T07:02:07;95530;;;19.5;81.5
77469;BME280;68840;50.272;12.818;2023-07-29T07:04:05;95531;;;19.6;81.2
77469;BME280;68840;50.272;12.818;2023-07-29T07:06:05;95531;;;19.6;81.1
77469;BME280;68840;50.272;12.818;2023-07-29T07:08:05;95531;;;19.7;81.6
77469;BME280;68840;50.272;12.818;2023-07-29T07:10:05;95530;;;19.8;81.7
77469;BME280;68840;50.272;12.818;2023-07-29T07:12:05;95529;;;19.8;81.3
77469;BME280;68840;50.272;12.818;2023-07-29T07:14:05;95530;;;19.9;82.0
77469;BME280;68840;50.272;12.818;2023-07-29T07:16:05;95527;;;20.0;81.5
77469;BME280;68840;50.272;12.818;2023-07-29T07:18:05;95527;;;20.0;79.8
77469;BME280;68840;50.272;12.818;2023-07-29T07:20:06;95528;;;20.1;78.8
77469;BME280;68840;50.272;12.818;2023-07-29T07:22:05;95528;;;20.1;77.5
77469;BME280;68840;50.272;12.818;2023-07-29T07:24:05;95530;;;20.2;78.6
77469;BME280;68840;50.272;12.818;2023-07-29T07:26:05;95530;;;20.2;78.0
77469;BME280;68840;50.272;12.818;2023-07-29T07:28:05;95523;;;20.2;78.3
77469;BME280;68840;50.272;12.818;2023-07-29T07:30:06;95520;;;20.2;81.2
77469;BME280;68840;50.272;12.818;2023-07-29T07:32:05;95512;;;20.3;78.0
77469;BME280;68840;50.272;12.818;2023-07-29T07:34:05;95506;;;20.3;78.6
77469;BME280;68840;50.272;12.818;2023-07-29T07:36:05;95504;;;20.4;79.3
77469;BME280;68840;50.272;12.818;2023-07-29T07:38:07;95504;;;20.5;78.2
77469;BME280;68840;50.272;12.818;2023-07-29T07:40:06;95510;;;20.5;75.7
77469;BME280;68840;50.272;12.818;2023-07-29T07:42:05;95511;;;20.6;75.7
77469;BME280;68840;50.272;12.818;2023-07-29T07:44:05;95511;;;20.6;76.6
77469;BME280;68840;50.272;12.818;2023-07-29T07:46:05;95513;;;20.7;76.1
77469;BME280;68840;50.272;12.818;2023-07-29T07:48:05;95512;;;20.8;74.2
77469;BME280;68840;50.272;12.818;2023-07-29T07:50:05;95503;;;20.8;76.5
77469;BME280;68840;50.272;12.818;2023-07-29T07:52:06;95498;;;20.8;73.6
77469;BME280;68840;50.272;12.818;2023-07-29T07:54:05;95494;;;20.9;74.6
77469;BME280;68840;50.272;12.818;2023-07-29T07:56:05;95496;;;21.0;74.6
77469;BME280;68840;50.272;12.818;2023-07-29T07:58:05;95498;;;21.0;75.5
77469;BME280;68840;50.272;12.818;2023-07-29T08:00:06;95499;;;21.1;74.4
77469;BME280;68840;50.272;12.818;2023-07-29T08:02:05;95503;;;21.2;74.3
77469;BME280;68840;50.272;12.818;2023-07-29T08:04:05;95507;;;21.2;72.9
77469;BME280;68840;50.272;12.818;2023-07-29T08:06:05;95510;;;21.3;73.3
77469;BME280;68840;50.272;12.818;2023-07-29T08:08:05;95512;;;21.4;71.9
77469;BME280;68840;50.272;12.818;2023-07-29T08:10:06;95516;;;21.5;71.3
77469;BME280;68840;50.272;12.818;2023-07-29T08:12:06;95516;;;21.5;70.1
77469;BME280;68840;50.272;12.818;2023-07-29T08:14:05;95513;;;21.5;69.8
77469;BME280;68840;50.272;12.818;2023-07-29T08:16:05;95508;;;21.5;69.9
77469;BME280;68840;50.272;12.818;2023-07-29T08:18:05;95509;;;21.5;70.8
77469;BME280;68840;50.272;12.818;2023-07-29T08:20:07;95512;;;21.5;70.7
77469;BME280;68840;50.272;12.818;2023-07-29T08:22:06;95515;;;21.5;70.0
77469;BME280;68840;50.272;12.818;2023-07-29T08:24:06;95518;;;21.5;70.5
77469;BME280;68840;50.272;12.818;2023-07-29T08:26:05;95523;;;21.5;69.8
77469;BME280;68840;50.272;12.818;2023-07-29T08:28:05;95529;;;21.6;69.2
77469;BME280;68840;50.272;12.818;2023-07-29T08:30:07;95529;;;21.6;69.6
77469;BME280;68840;50.272;12.818;2023-07-29T08:32:05;95529;;;21.6;68.8
77469;BME280;68840;50.272;12.818;2023-07-29T08:34:05;95528;;;21.6;68.2
77469;BME280;68840;50.272;12.818;2023-07-29T08:36:05;95530;;;21.6;68.8
77469;BME280;68840;50.272;12.818;2023-07-29T08:38:05;95531;;;21.6;68.7
77469;BME280;68840;50.272;12.818;2023-07-29T08:40:06;95531;;;21.7;67.9
77469;BME280;68840;50.272;12.818;2023-07-29T08:42:07;95528;;;21.7;67.5
77469;BME280;68840;50.272;12.818;2023-07-29T08:44:09;95531;;;21.7;67.7
77469;BME280;68840;50.272;12.818;2023-07-29T08:46:06;95532;;;21.7;68.7
77469;BME280;68840;50.272;12.818;2023-07-29T08:48:08;95533;;;21.7;67.0
77469;BME280;68840;50.272;12.818;2023-07-29T08:50:07;95536;;;21.7;66.6
77469;BME280;68840;50.272;12.818;2023-07-29T08:52:07;95534;;;21.6;66.8
77469;BME280;68840;50.272;12.818;2023-07-29T08:54:05;95536;;;21.6;67.1
77469;BME280;68840;50.272;12.818;2023-07-29T08:56:07;95539;;;21.6;67.8
77469;BME280;68840;50.272;12.818;2023-07-29T08:58:05;95539;;;21.5;67.5
77469;BME280;68840;50.272;12.818;2023-07-29T09:00:07;95538;;;21.4;68.5
77469;BME280;68840;50.272;12.818;2023-07-29T09:02:05;95541;;;21.3;68.3
77469;BME280;68840;50.272;12.818;2023-07-29T09:04:05;95545;;;21.2;69.5
77469;BME280;68840;50.272;12.818;2023-07-29T09:06:05;95551;;;21.1;71.0
77469;BME280;68840;50.272;12.818;2023-07-29T09:08:05;95551;;;21.0;72.8
77469;BME280;68840;50.272;12.818;2023-07-29T09:10:08;95554;;;20.9;75.3
77469;BME280;68840;50.272;12.818;2023-07-29T09:12:06;95556;;;20.9;77.2
77469;BME280;68840;50.272;12.818;2023-07-29T09:14:05;95559;;;20.8;77.1
77469;BME280;68840;50.272;12.818;2023-07-29T09:16:05;95562;;;20.6;78.3
77469;BME280;68840;50.272;12.818;2023-07-29T09:18:10;95568;;;20.5;80.3
77469;BME280;68840;50.272;12.818;2023-07-29T09:20:07;95569;;;20.4;80.9
77469;BME280;68840;50.272;12.818;2023-07-29T09:22:17;95568;;;20.3;81.8
77469;BME280;68840;50.272;12.818;2023-07-29T09:24:07;95568;;;20.3;81.7
77469;BME280;68840;50.272;12.818;2023-07-29T09:26:05;95566;;;20.2;82.6
77469;BME280;68840;50.272;12.818;2023-07-29T09:28:10;95567;;;20.1;84.1
77469;BME280;68840;50.272;12.818;2023-07-29T09:30:06;95566;;;20.0;85.2
77469;BME280;68840;50.272;12.818;2023-07-29T09:32:23;95564;;;19.9;84.7
77469;BME280;68840;50.272;12.818;2023-07-29T09:34:05;95562;;;19.8;85.4
77469;BME280;68840;50.272;12.818;2023-07-29T09:36:09;95563;;;19.8;86.6
77469;BME280;68840;50.272;12.818;2023-07-29T09:38:06;95563;;;19.7;88.2
77469;BME280;68840;50.272;12.818;2023-07-29T09:40:06;95560;;;19.6;88.4
77469;BME280;68840;50.272;12.818;2023-07-29T09:42:06;95552;;;19.6;89.1
77469;BME280;68840;50.272;12.818;2023-07-29T09:44:06;95551;;;19.5;89.9
77469;BME280;68840;50.272;12.818;2023-07-29T09:46:06;95555;;;19.5;90.4
77469;BME280;68840;50.272;12.818;2023-07-29T09:48:09;95560;;;19.5;90.3
77469;BME280;68840;50.272;12.818;2023-07-29T09:50:05;95557;;;19.4;90.0
77469;BME280;68840;50.272;12.818;2023-07-29T09:52:08;95554;;;19.4;90.5
77469;BME280;68840;50.272;12.818;2023-07-29T09:54:05;95551;;;19.3;91.6
77469;BME280;68840;50.272;12.818;2023-07-29T09:56:05;95551;;;19.3;91.5
77469;BME280;68840;50.272;12.818;2023-07-29T09:58:08;95550;;;19.3;91.8
77469;BME280;68840;50.272;12.818;2023-07-29T10:00:11;95552;;;19.3;91.4
77469;BME280;68840;50.272;12.818;2023-07-29T10:02:12;95550;;;19.3;91.8
77469;BME280;68840;50.272;12.818;2023-07-29T10:04:06;95547;;;19.3;91.4
77469;BME280;68840;50.272;12.818;2023-07-29T10:06:07;95543;;;19.2;92.1
77469;BME280;68840;50.272;12.818;2023-07-29T10:08:05;95540;;;19.2;92.3
77469;BME280;68840;50.272;12.818;2023-07-29T10:10:07;95536;;;19.2;91.9
77469;BME280;68840;50.272;12.818;2023-07-29T10:12:06;95533;;;19.2;92.1
77469;BME280;68840;50.272;12.818;2023-07-29T10:14:06;95537;;;19.2;92.1
77469;BME280;68840;50.272;12.818;2023-07-29T10:16:06;95541;;;19.2;92.1
77469;BME280;68840;50.272;12.818;2023-07-29T10:18:06;95538;;;19.2;91.9
77469;BME280;68840;50.272;12.818;2023-07-29T10:20:07;95535;;;19.2;91.8
77469;BME280;68840;50.272;12.818;2023-07-29T10:22:06;95537;;;19.2;92.8
77469;BME280;68840;50.272;12.818;2023-07-29T10:24:09;95539;;;19.2;92.7
77469;BME280;68840;50.272;12.818;2023-07-29T10:26:07;95542;;;19.2;92.6
77469;BME280;68840;50.272;12.818;2023-07-29T10:28:07;95543;;;19.2;92.6
77469;BME280;68840;50.272;12.818;2023-07-29T10:30:06;95543;;;19.2;92.5
77469;BME280;68840;50.272;12.818;2023-07-29T10:32:07;95543;;;19.2;92.3
77469;BME280;68840;50.272;12.818;2023-07-29T10:34:05;95543;;;19.2;92.8
77469;BME280;68840;50.272;12.818;2023-07-29T10:36:05;95541;;;19.2;92.8
77469;BME280;68840;50.272;12.818;2023-07-29T10:38:05;95538;;;19.2;93.1
77469;BME280;68840;50.272;12.818;2023-07-29T10:40:07;95535;;;19.2;93.2
77469;BME280;68840;50.272;12.818;2023-07-29T10:42:06;95531;;;19.2;93.2
77469;BME280;68840;50.272;12.818;2023-07-29T10:44:05;95533;;;19.2;93.0
77469;BME280;68840;50.272;12.818;2023-07-29T10:46:15;95531;;;19.2;93.1
77469;BME280;68840;50.272;12.818;2023-07-29T10:48:06;95528;;;19.3;93.1
77469;BME280;68840;50.272;12.818;2023-07-29T10:50:17;95526;;;19.3;93.2
77469;BME280;68840;50.272;12.818;2023-07-29T10:52:06;95522;;;19.3;92.9
77469;BME280;68840;50.272;12.818;2023-07-29T10:54:11;95523;;;19.3;93.0
77469;BME280;68840;50.272;12.818;2023-07-29T10:56:05;95526;;;19.3;93.4
77469;BME280;68840;50.272;12.818;2023-07-29T10:58:08;95526;;;19.3;93.0
77469;BME280;68840;50.272;12.818;2023-07-29T11:00:06;95528;;;19.4;93.4
77469;BME280;68840;50.272;12.818;2023-07-29T11:02:17;95528;;;19.4;93.4
77469;BME280;68840;50.272;12.818;2023-07-29T11:04:45;95529;;;19.4;93.6
77469;BME280;68840;50.272;12.818;2023-07-29T11:06:05;95527;;;19.5;94.0
77469;BME280;68840;50.272;12.818;2023-07-29T11:08:16;95523;;;19.5;94.0
77469;BME280;68840;50.272;12.818;2023-07-29T11:10:06;95524;;;19.6;93.8